Landrum, Texas
Current Conditions -  °F | °C
As of 7:52 PM on Friday 19 Dec 2014 (Local Time) from KHRL Reporting Station
Overcast Overcast  
Wind Chill: 61°   Ceiling: 1300
Heat Index: 61°   Visibility: 10mi
Dew Point: 58°   Wind: 9mph
Humidity: 90%   Direction: 350°N
Pressure: 30.07"   Gusts: NA
Location:  26.1784°N, 97.6678°W
Report Text: KHRL 200152Z 35008KT 10SM OVC013 16/14 A3007 RMK AO2 SLP181 T01610144
Loading
Personal Weather Stations






























Interactive Weather Map New forecast layout! Learn more

10-Day Weather Forecast

Advertisements
Track Severe Weather on mobile